Time;durP1;ratioP1;P1;durP2;ratioP2;P2;SDS_P1;SDS_P2;PMS_P1;PMS_P2;Temp;Humidity;BMP_temperature;BMP_pressure;BME280_temperature;BME280_humidity;BME280_pressure;Samples;Min_cycle;Max_cycle;Signal;HPM_P1;HPM_P2
2023/12/01 00:01:40;;;;;;;5.20;1.60;;;17.50;57.60;;;;;;6068294;23;20213;-82
2023/12/01 00:04:09;;;;;;;1.95;1.40;;;17.50;57.60;;;;;;6115724;23;20615;-82
2023/12/01 00:06:39;;;;;;;1.83;1.48;;;17.50;57.60;;;;;;6092330;23;20157;-82
2023/12/01 00:09:08;;;;;;;2.35;1.40;;;17.50;57.60;;;;;;6091814;23;20210;-82
2023/12/01 00:11:37;;;;;;;2.70;1.58;;;17.50;57.50;;;;;;6092618;23;20163;-82
2023/12/01 00:14:07;;;;;;;2.53;1.70;;;17.40;57.50;;;;;;6116584;23;20661;-82
2023/12/01 00:16:37;;;;;;;1.80;1.60;;;17.50;57.60;;;;;;6068243;23;20182;-82
2023/12/01 00:19:06;;;;;;;3.28;1.90;;;17.50;57.60;;;;;;6068632;23;20177;-83
2023/12/01 00:21:34;;;;;;;5.20;1.70;;;17.40;57.40;;;;;;6092682;23;20158;-82
2023/12/01 00:24:03;;;;;;;5.05;1.63;;;17.50;57.50;;;;;;6093009;23;20158;-83
2023/12/01 00:26:31;;;;;;;1.77;1.50;;;17.40;57.50;;;;;;6093375;23;20230;-82
2023/12/01 00:28:58;;;;;;;1.98;1.50;;;17.40;57.60;;;;;;6117127;23;20194;-83
2023/12/01 00:31:23;;;;;;;2.13;1.60;;;17.40;57.60;;;;;;6167147;23;20155;-84
2023/12/01 00:33:51;;;;;;;4.25;1.58;;;17.40;57.40;;;;;;6167158;23;20139;-82
2023/12/01 00:36:21;;;;;;;2.55;1.40;;;17.40;57.50;;;;;;6168158;23;20135;-83
2023/12/01 00:38:47;;;;;;;1.80;1.50;;;17.50;57.50;;;;;;6117439;23;20158;-82
2023/12/01 00:41:12;;;;;;;2.15;1.40;;;17.40;57.50;;;;;;6194222;23;20189;-83
2023/12/01 00:43:39;;;;;;;2.15;1.50;;;17.40;57.70;;;;;;6142265;23;20198;-82
2023/12/01 00:46:05;;;;;;;2.60;1.40;;;17.40;57.60;;;;;;6193976;23;20510;-82
2023/12/01 00:48:31;;;;;;;3.90;1.80;;;17.40;57.30;;;;;;6142425;23;20205;-83
2023/12/01 00:51:02;;;;;;;1.65;1.55;;;17.30;57.40;;;;;;6167348;23;20158;-83
2023/12/01 00:53:28;;;;;;;1.67;1.52;;;17.40;57.60;;;;;;6069523;23;20614;-82
2023/12/01 00:55:54;;;;;;;1.83;1.30;;;17.40;57.70;;;;;;6193605;23;20131;-83
2023/12/01 00:58:20;;;;;;;2.08;1.48;;;17.40;57.80;;;;;;6166180;23;20142;-83
2023/12/01 01:00:46;;;;;;;2.15;1.50;;;17.30;57.70;;;;;;6141687;23;20598;-82
2023/12/01 01:03:17;;;;;;;1.73;1.38;;;17.30;57.70;;;;;;6166550;23;20238;-83
2023/12/01 01:05:43;;;;;;;1.90;1.38;;;17.40;57.60;;;;;;6092094;23;20177;-83
2023/12/01 01:08:09;;;;;;;1.83;1.45;;;17.40;57.50;;;;;;6165793;23;20135;-83
2023/12/01 01:10:35;;;;;;;4.97;2.00;;;17.40;57.60;;;;;;6193350;23;20139;-82
2023/12/01 01:13:03;;;;;;;4.43;1.70;;;17.30;57.70;;;;;;6167793;23;20138;-84
2023/12/01 01:18:06;;;;;;;2.00;1.63;;;17.30;57.60;;;;;;6189223;23;20201;-82
2023/12/01 01:20:32;;;;;;;2.33;1.63;;;17.40;57.50;;;;;;6166365;23;20157;-82
2023/12/01 01:22:58;;;;;;;3.95;1.60;;;17.30;57.60;;;;;;6142606;23;20637;-82
2023/12/01 01:25:25;;;;;;;2.47;1.67;;;17.40;57.50;;;;;;6166751;23;20130;-83
2023/12/01 01:27:51;;;;;;;3.20;1.70;;;17.30;57.50;;;;;;6166562;23;20182;-82
2023/12/01 01:30:18;;;;;;;2.40;1.73;;;17.30;57.60;;;;;;6141905;23;20170;-82
2023/12/01 01:32:48;;;;;;;3.30;1.60;;;17.40;57.50;;;;;;6167036;23;20135;-82
2023/12/01 01:35:15;;;;;;;2.60;1.60;;;17.30;57.50;;;;;;6116128;23;20151;-82
2023/12/01 01:37:43;;;;;;;4.50;1.58;;;17.30;57.40;;;;;;6142533;23;20142;-82
2023/12/01 01:40:13;;;;;;;4.03;1.60;;;17.30;57.40;;;;;;6166638;23;20441;-82
2023/12/01 01:42:39;;;;;;;2.00;1.65;;;17.30;57.70;;;;;;6167337;23;20185;-82
2023/12/01 01:45:05;;;;;;;2.55;1.60;;;17.30;57.60;;;;;;6141539;23;20150;-82
2023/12/01 01:47:33;;;;;;;1.63;1.35;;;17.30;57.70;;;;;;6167045;23;20246;-82
2023/12/01 01:50:02;;;;;;;2.42;1.70;;;17.30;57.60;;;;;;6167040;23;20177;-82
2023/12/01 01:52:28;;;;;;;3.63;1.60;;;17.30;57.50;;;;;;6139597;23;20207;-84
2023/12/01 01:54:54;;;;;;;3.33;1.63;;;17.30;57.80;;;;;;6107815;23;20163;-84
2023/12/01 01:57:20;;;;;;;1.83;1.38;;;17.30;57.50;;;;;;6107684;23;20220;-84
2023/12/01 02:02:11;;;;;;;2.00;1.55;;;17.40;57.70;;;;;;6154908;23;20209;-84
2023/12/01 02:04:37;;;;;;;1.52;1.40;;;17.30;57.60;;;;;;6171853;23;20145;-83
2023/12/01 02:07:03;;;;;;;2.75;1.45;;;17.30;57.70;;;;;;6196957;23;20134;-83
2023/12/01 02:09:33;;;;;;;1.98;1.30;;;17.30;57.50;;;;;;6222504;23;20206;-83
2023/12/01 02:12:01;;;;;;;2.15;1.60;;;17.30;57.60;;;;;;6171339;23;20542;-84
2023/12/01 02:14:27;;;;;;;3.05;1.80;;;17.30;57.70;;;;;;6146304;23;20200;-83
2023/12/01 02:16:53;;;;;;;2.55;1.50;;;17.20;57.50;;;;;;6147297;23;20138;-83
2023/12/01 02:19:22;;;;;;;2.63;1.52;;;17.30;57.50;;;;;;6147125;23;20203;-82
2023/12/01 02:21:51;;;;;;;1.50;1.35;;;17.30;57.60;;;;;;6195863;23;20130;-83
2023/12/01 02:24:17;;;;;;;3.42;1.73;;;17.30;57.50;;;;;;6147414;23;20146;-83
2023/12/01 02:26:42;;;;;;;2.28;1.80;;;17.20;57.40;;;;;;6185800;23;20704;-82
2023/12/01 02:29:10;;;;;;;1.92;1.42;;;17.30;57.70;;;;;;6191091;23;20909;-82
2023/12/01 02:31:40;;;;;;;3.63;1.40;;;17.30;57.60;;;;;;6140580;23;20193;-82
2023/12/01 02:34:07;;;;;;;3.25;1.40;;;17.20;57.40;;;;;;6140104;23;20151;-82
2023/12/01 02:36:34;;;;;;;2.90;1.50;;;17.30;57.50;;;;;;6140652;23;20154;-82
2023/12/01 02:39:08;;;;;;;2.95;1.33;;;17.30;58.20;;;;;;6166293;23;20147;-83
2023/12/01 02:44:09;;;;;;;2.85;1.75;;;17.30;57.60;;;;;;6191359;23;20206;-82
2023/12/01 02:46:38;;;;;;;2.33;1.48;;;17.30;57.70;;;;;;6141465;23;20238;-82
2023/12/01 02:49:04;;;;;;;1.67;1.50;;;17.20;57.50;;;;;;6167632;23;20159;-83
2023/12/01 02:51:30;;;;;;;1.48;1.27;;;17.30;57.50;;;;;;6141129;23;20150;-82
2023/12/01 02:54:00;;;;;;;2.10;1.60;;;17.30;57.50;;;;;;6141199;23;20135;-83
2023/12/01 02:56:26;;;;;;;4.20;1.63;;;17.20;57.40;;;;;;6068229;23;20197;-83
2023/12/01 02:58:52;;;;;;;3.33;1.75;;;17.30;57.50;;;;;;6142032;23;20443;-82
2023/12/01 03:01:18;;;;;;;2.60;1.52;;;17.20;57.60;;;;;;6192062;23;20444;-82
2023/12/01 03:03:44;;;;;;;2.03;1.55;;;17.20;57.50;;;;;;6141578;23;20147;-82
2023/12/01 03:06:10;;;;;;;1.77;1.60;;;17.20;57.50;;;;;;6165380;23;20593;-83
2023/12/01 03:08:36;;;;;;;2.10;1.40;;;17.20;57.50;;;;;;6141575;23;20205;-82
2023/12/01 03:11:06;;;;;;;2.80;1.60;;;17.20;57.70;;;;;;6166497;23;20151;-83
2023/12/01 03:16:08;;;;;;;2.42;1.42;;;17.20;57.50;;;;;;6189615;23;20549;-82
2023/12/01 03:18:35;;;;;;;1.77;1.20;;;17.20;57.30;;;;;;6166911;23;20193;-82
2023/12/01 03:21:12;;;;;;;2.30;1.48;;;17.20;57.70;;;;;;6167195;23;20158;-82
2023/12/01 03:23:42;;;;;;;3.80;1.30;;;17.20;57.50;;;;;;6167444;23;20154;-83
2023/12/01 03:26:10;;;;;;;2.95;1.40;;;17.20;57.30;;;;;;6070932;23;20155;-83
2023/12/01 03:28:40;;;;;;;2.22;1.40;;;17.20;57.70;;;;;;6093019;23;20194;-82
2023/12/01 03:31:08;;;;;;;1.40;1.30;;;17.20;57.50;;;;;;6093331;23;20216;-84
2023/12/01 03:33:36;;;;;;;1.77;1.50;;;17.20;57.60;;;;;;6117081;23;20241;-83
2023/12/01 03:36:06;;;;;;;2.42;1.50;;;17.20;57.50;;;;;;6093359;23;20157;-82
2023/12/01 03:38:33;;;;;;;2.47;1.50;;;17.20;57.60;;;;;;6141736;23;20197;-82
2023/12/01 03:41:00;;;;;;;2.17;1.40;;;17.20;57.70;;;;;;6070536;23;20150;-83
2023/12/01 03:43:26;;;;;;;3.00;1.58;;;17.20;57.60;;;;;;6168147;23;20142;-83
2023/12/01 03:45:52;;;;;;;1.40;1.30;;;17.20;57.70;;;;;;6169034;23;20236;-83
2023/12/01 03:48:17;;;;;;;1.77;1.50;;;17.10;57.70;;;;;;6167357;23;20198;-83
2023/12/01 03:50:43;;;;;;;2.05;1.35;;;17.10;57.60;;;;;;6161090;23;20227;-82
2023/12/01 03:53:11;;;;;;;2.50;1.67;;;17.10;57.50;;;;;;6163634;23;20139;-82
2023/12/01 03:55:38;;;;;;;2.33;1.52;;;17.20;57.80;;;;;;6137712;23;20143;-82
2023/12/01 03:58:04;;;;;;;2.75;1.73;;;17.20;57.60;;;;;;6161971;23;20136;-82
2023/12/01 04:00:32;;;;;;;2.63;1.50;;;17.20;57.70;;;;;;6162187;23;20139;-82
2023/12/01 04:02:58;;;;;;;2.80;1.33;;;17.20;57.40;;;;;;6163251;23;20196;-83
2023/12/01 04:05:26;;;;;;;1.50;1.27;;;17.20;57.40;;;;;;6137629;23;20560;-82
2023/12/01 04:07:52;;;;;;;2.72;1.70;;;17.20;57.40;;;;;;6162293;23;20482;-82
2023/12/01 04:10:19;;;;;;;2.03;1.52;;;17.20;57.50;;;;;;6162123;23;20286;-83
2023/12/01 04:12:45;;;;;;;2.47;1.63;;;17.20;57.60;;;;;;6162240;23;20163;-83
2023/12/01 04:15:18;;;;;;;2.50;1.55;;;17.20;57.70;;;;;;6161660;23;20150;-82
2023/12/01 04:17:45;;;;;;;2.08;1.30;;;17.20;57.50;;;;;;6136022;23;20151;-82
2023/12/01 04:20:20;;;;;;;1.92;1.48;;;17.20;57.50;;;;;;6137324;23;20155;-82
2023/12/01 04:22:50;;;;;;;4.22;1.77;;;17.20;57.40;;;;;;6162435;23;20245;-83
2023/12/01 04:25:16;;;;;;;1.88;1.42;;;17.20;57.50;;;;;;6162451;23;20136;-82
2023/12/01 04:27:50;;;;;;;1.75;1.45;;;17.20;57.50;;;;;;6136849;23;20309;-82
2023/12/01 04:30:20;;;;;;;2.13;1.60;;;17.20;57.50;;;;;;6136496;23;20198;-82
2023/12/01 04:32:48;;;;;;;1.48;1.38;;;17.20;57.40;;;;;;6113774;23;20182;-82
2023/12/01 04:35:15;;;;;;;1.50;1.25;;;17.20;57.50;;;;;;6140149;23;20153;-82
2023/12/01 04:37:45;;;;;;;1.92;1.35;;;17.10;57.40;;;;;;6139594;23;20144;-82
2023/12/01 04:40:18;;;;;;;1.75;1.40;;;17.20;57.40;;;;;;6138709;23;20187;-82
2023/12/01 04:42:51;;;;;;;1.38;1.20;;;17.20;57.40;;;;;;6163980;23;20559;-82
2023/12/01 04:45:24;;;;;;;3.00;1.52;;;17.20;57.30;;;;;;6113076;23;20162;-82
2023/12/01 04:47:55;;;;;;;1.88;1.63;;;17.20;57.30;;;;;;6112692;23;20156;-82
2023/12/01 04:50:22;;;;;;;2.25;1.60;;;17.20;57.50;;;;;;6113076;23;20221;-82
2023/12/01 04:52:49;;;;;;;2.10;1.40;;;17.10;57.50;;;;;;6142170;23;20150;-82
2023/12/01 04:55:17;;;;;;;2.17;1.70;;;17.10;57.50;;;;;;6167150;23;20131;-82
2023/12/01 05:00:26;;;;;;;1.98;1.20;;;17.10;57.50;;;;;;6184029;23;20206;-82
2023/12/01 05:02:58;;;;;;;2.20;1.35;;;17.20;57.40;;;;;;6170078;23;20134;-82
2023/12/01 05:05:35;;;;;;;2.67;1.33;;;17.20;57.30;;;;;;6092707;23;20181;-83
2023/12/01 05:08:04;;;;;;;2.97;1.48;;;17.10;57.40;;;;;;6094776;23;20153;-82
2023/12/01 05:10:31;;;;;;;2.17;1.42;;;17.10;57.50;;;;;;6165288;23;20229;-82
2023/12/01 05:12:59;;;;;;;1.60;1.40;;;17.10;57.40;;;;;;6142790;23;20143;-83
2023/12/01 05:15:31;;;;;;;1.50;1.40;;;17.10;57.40;;;;;;6143786;23;20555;-83
2023/12/01 05:20:25;;;;;;;2.47;1.48;;;17.10;57.20;;;;;;6163825;23;22338;-83
2023/12/01 05:22:53;;;;;;;3.58;1.52;;;17.10;57.30;;;;;;6191705;23;20138;-83
2023/12/01 05:25:19;;;;;;;1.85;1.27;;;17.10;57.40;;;;;;6192051;23;20195;-82
2023/12/01 05:27:46;;;;;;;3.13;1.55;;;17.10;57.50;;;;;;6168943;23;20576;-83
2023/12/01 05:30:20;;;;;;;2.58;1.60;;;17.20;57.30;;;;;;6083305;23;20195;-83
2023/12/01 05:32:49;;;;;;;1.52;1.40;;;17.10;58.00;;;;;;6106462;23;20156;-83
2023/12/01 05:35:15;;;;;;;1.77;1.52;;;17.10;57.40;;;;;;6131068;23;20155;-83
2023/12/01 05:37:48;;;;;;;1.67;1.35;;;17.10;57.50;;;;;;6155233;23;20502;-83
2023/12/01 05:40:17;;;;;;;1.80;1.30;;;17.20;57.40;;;;;;6131645;23;20154;-83
2023/12/01 05:42:44;;;;;;;2.17;1.35;;;17.10;57.30;;;;;;6131252;23;20131;-83
2023/12/01 05:45:11;;;;;;;1.70;1.50;;;17.20;57.10;;;;;;6131257;23;20136;-83
2023/12/01 05:47:44;;;;;;;1.83;1.40;;;17.20;57.20;;;;;;6106569;23;20151;-83
2023/12/01 05:50:13;;;;;;;2.20;1.50;;;17.20;57.30;;;;;;6130346;23;20183;-83
2023/12/01 05:52:45;;;;;;;2.15;1.25;;;17.20;57.10;;;;;;6154555;23;20144;-83
2023/12/01 05:55:14;;;;;;;2.08;1.65;;;17.10;57.20;;;;;;6131031;23;20474;-83
2023/12/01 05:57:42;;;;;;;1.70;1.38;;;17.10;57.30;;;;;;6155210;23;20124;-83
2023/12/01 06:00:15;;;;;;;2.38;1.55;;;17.10;57.20;;;;;;6154859;23;20453;-84
2023/12/01 06:02:42;;;;;;;1.95;1.20;;;17.10;57.30;;;;;;6131456;23;20560;-83
2023/12/01 06:05:11;;;;;;;1.60;1.30;;;17.10;57.10;;;;;;6130428;23;20210;-83
2023/12/01 06:07:41;;;;;;;2.17;1.50;;;17.10;57.10;;;;;;6131220;23;20222;-82
2023/12/01 06:10:08;;;;;;;2.20;1.67;;;17.10;57.10;;;;;;6128985;23;20175;-82
2023/12/01 06:12:34;;;;;;;2.42;1.38;;;17.10;57.30;;;;;;6128852;23;20138;-82
2023/12/01 06:15:00;;;;;;;2.55;1.50;;;17.10;57.20;;;;;;6154514;23;20136;-82
2023/12/01 06:17:26;;;;;;;2.22;1.40;;;17.10;57.10;;;;;;6154189;23;20602;-83
2023/12/01 06:19:52;;;;;;;1.67;1.30;;;17.10;57.10;;;;;;6153814;23;20143;-83
2023/12/01 06:22:17;;;;;;;2.15;1.58;;;17.10;57.20;;;;;;6154860;23;20132;-83
2023/12/01 06:24:43;;;;;;;2.53;1.40;;;17.10;57.30;;;;;;6128900;23;20591;-83
2023/12/01 06:27:11;;;;;;;1.75;1.50;;;17.10;57.00;;;;;;6129344;23;20128;-83
2023/12/01 06:29:39;;;;;;;3.67;1.58;;;17.20;57.50;;;;;;6103933;23;20206;-83
2023/12/01 06:32:05;;;;;;;1.77;1.17;;;17.00;57.20;;;;;;6080243;23;20162;-83
2023/12/01 06:34:31;;;;;;;2.05;1.50;;;17.10;57.20;;;;;;6158435;23;20577;-83
2023/12/01 06:36:59;;;;;;;1.77;1.40;;;17.10;57.40;;;;;;6132738;23;20136;-83
2023/12/01 06:39:26;;;;;;;1.92;1.60;;;17.10;57.00;;;;;;6132645;23;20151;-83
2023/12/01 06:41:54;;;;;;;1.30;1.15;;;17.10;57.20;;;;;;6131629;23;20201;-83
2023/12/01 06:44:20;;;;;;;4.43;1.40;;;17.10;57.30;;;;;;6134495;23;20816;-83
2023/12/01 06:46:49;;;;;;;2.05;1.40;;;17.10;57.30;;;;;;6158306;23;20151;-85
2023/12/01 06:49:19;;;;;;;1.40;1.30;;;17.10;57.30;;;;;;6085654;23;20194;-84
2023/12/01 06:51:45;;;;;;;1.83;1.50;;;17.10;57.50;;;;;;6153110;23;20180;-83
2023/12/01 06:54:10;;;;;;;2.03;1.45;;;17.00;57.20;;;;;;6127351;23;20136;-83
2023/12/01 06:56:37;;;;;;;3.17;1.60;;;17.10;57.30;;;;;;6153874;23;20649;-83
2023/12/01 06:59:06;;;;;;;2.15;1.60;;;17.10;57.40;;;;;;6104693;23;20155;-85
2023/12/01 07:01:32;;;;;;;2.38;1.40;;;17.10;57.30;;;;;;6127986;23;20147;-83
2023/12/01 07:03:58;;;;;;;2.13;1.50;;;17.00;57.40;;;;;;6151491;23;20151;-83
2023/12/01 07:06:23;;;;;;;1.77;1.33;;;17.00;57.30;;;;;;6127714;23;20167;-83
2023/12/01 07:08:49;;;;;;;1.88;1.40;;;17.00;57.50;;;;;;6152629;23;20666;-83
2023/12/01 07:11:19;;;;;;;1.30;1.20;;;17.00;57.20;;;;;;6128731;23;20551;-83
2023/12/01 07:13:49;;;;;;;1.42;1.10;;;17.00;57.20;;;;;;6079186;23;20162;-83
2023/12/01 07:16:20;;;;;;;1.67;1.20;;;17.10;56.90;;;;;;6102586;23;20583;-83
2023/12/01 07:18:50;;;;;;;1.60;1.50;;;17.10;56.90;;;;;;6078969;23;20603;-83
2023/12/01 07:21:18;;;;;;;2.38;1.42;;;17.10;56.70;;;;;;6103606;23;20235;-84
2023/12/01 07:23:46;;;;;;;1.88;1.40;;;17.20;56.60;;;;;;6079013;23;20206;-83
2023/12/01 07:28:41;;;;;;;1.70;1.27;;;17.20;56.30;;;;;;6183222;23;20206;-84
2023/12/01 07:31:11;;;;;;;1.50;1.30;;;17.30;56.20;;;;;;6107741;23;20159;-84
2023/12/01 07:33:40;;;;;;;1.83;1.35;;;17.20;56.40;;;;;;6131872;23;20197;-83
2023/12/01 07:36:10;;;;;;;1.27;1.10;;;17.30;56.20;;;;;;6083548;23;20157;-84
2023/12/01 07:38:38;;;;;;;1.80;1.40;;;17.20;55.70;;;;;;6107965;23;20250;-83
2023/12/01 07:41:07;;;;;;;1.42;1.25;;;17.30;56.20;;;;;;6083341;23;20155;-83
2023/12/01 07:46:02;;;;;;;2.72;1.50;;;17.30;55.70;;;;;;6154597;23;20219;-83
2023/12/01 07:48:32;;;;;;;3.35;1.30;;;17.30;55.90;;;;;;6150188;23;20537;-85
2023/12/01 07:51:02;;;;;;;1.60;1.40;;;17.40;56.00;;;;;;6132166;23;20165;-84
2023/12/01 07:53:31;;;;;;;1.67;1.40;;;17.30;56.10;;;;;;6157043;23;20157;-84
2023/12/01 07:55:56;;;;;;;1.20;1.10;;;17.20;55.90;;;;;;6156390;23;20162;-84
2023/12/01 07:58:22;;;;;;;1.75;1.30;;;17.30;56.20;;;;;;6183563;23;20511;-84
2023/12/01 08:00:48;;;;;;;2.00;1.52;;;17.30;56.20;;;;;;6184025;23;20132;-84
2023/12/01 08:03:14;;;;;;;1.38;1.27;;;17.30;56.40;;;;;;6183238;23;20139;-83
2023/12/01 08:05:40;;;;;;;1.27;1.15;;;17.30;56.10;;;;;;6160753;23;20605;-84
2023/12/01 08:08:06;;;;;;;2.53;1.40;;;17.30;55.90;;;;;;6157737;23;20141;-84
2023/12/01 08:10:32;;;;;;;1.35;1.05;;;17.30;55.90;;;;;;6159031;23;20178;-84
2023/12/01 08:12:58;;;;;;;1.52;1.15;;;17.30;56.40;;;;;;6160698;23;20189;-84
2023/12/01 08:15:24;;;;;;;1.23;1.10;;;17.20;56.10;;;;;;6135732;23;20153;-83
2023/12/01 08:17:50;;;;;;;1.77;1.30;;;17.40;55.60;;;;;;6159324;23;20205;-83
2023/12/01 08:20:16;;;;;;;1.40;1.30;;;17.40;56.00;;;;;;6159465;23;20582;-83
2023/12/01 08:22:46;;;;;;;2.03;1.52;;;17.30;56.10;;;;;;6160601;23;20475;-83
2023/12/01 08:25:12;;;;;;;1.65;1.20;;;17.30;56.30;;;;;;6161729;23;20146;-83
2023/12/01 08:27:40;;;;;;;2.20;1.40;;;17.30;56.00;;;;;;6159170;23;20131;-83
2023/12/01 08:30:08;;;;;;;1.30;1.10;;;17.30;55.60;;;;;;6084987;23;20186;-84
2023/12/01 08:32:36;;;;;;;2.28;1.17;;;17.30;56.00;;;;;;6061499;23;20542;-84
2023/12/01 08:35:03;;;;;;;1.27;1.17;;;17.30;56.20;;;;;;6084161;23;20230;-83
2023/12/01 08:37:30;;;;;;;2.20;1.27;;;17.30;55.80;;;;;;6158577;23;20203;-83
2023/12/01 08:39:57;;;;;;;1.38;1.10;;;17.30;55.60;;;;;;6061055;23;20460;-83
2023/12/01 08:42:24;;;;;;;2.13;1.20;;;17.30;55.10;;;;;;6060779;23;20151;-84
2023/12/01 08:44:49;;;;;;;1.70;1.30;;;17.40;55.20;;;;;;6159507;23;20246;-84
2023/12/01 08:47:20;;;;;;;2.35;1.30;;;17.30;55.70;;;;;;6135270;23;20197;-84
2023/12/01 08:49:49;;;;;;;1.75;1.42;;;17.40;55.60;;;;;;6159445;23;20241;-83
2023/12/01 08:52:15;;;;;;;1.33;1.20;;;17.30;55.70;;;;;;6109764;23;20154;-83
2023/12/01 08:54:41;;;;;;;1.80;1.20;;;17.40;55.90;;;;;;6185607;23;20134;-84
2023/12/01 08:57:07;;;;;;;1.27;1.10;;;17.40;55.70;;;;;;6159274;23;20278;-83
2023/12/01 08:59:33;;;;;;;2.10;1.30;;;17.30;55.70;;;;;;6135293;23;20147;-83
2023/12/01 09:01:58;;;;;;;2.75;0.98;;;17.40;55.70;;;;;;6185382;23;20135;-83
2023/12/01 09:04:24;;;;;;;1.35;1.10;;;17.40;54.90;;;;;;6153946;23;20191;-83
2023/12/01 09:06:51;;;;;;;1.30;1.20;;;17.40;55.30;;;;;;6164073;23;20128;-84
2023/12/01 09:09:17;;;;;;;2.22;1.35;;;17.40;55.60;;;;;;6143021;23;20201;-84
2023/12/01 09:11:43;;;;;;;1.30;1.10;;;17.40;55.40;;;;;;6157003;23;20131;-84
2023/12/01 09:14:09;;;;;;;1.40;1.30;;;17.40;55.60;;;;;;6155887;23;20210;-83
2023/12/01 09:16:34;;;;;;;1.63;1.27;;;17.40;55.90;;;;;;6156018;23;20128;-84
2023/12/01 09:19:00;;;;;;;1.50;1.30;;;17.40;55.20;;;;;;6156450;23;20512;-83
2023/12/01 09:21:27;;;;;;;1.15;1.05;;;17.40;55.50;;;;;;6156027;23;20136;-84
2023/12/01 09:23:56;;;;;;;1.67;1.42;;;17.40;55.60;;;;;;6156223;23;20218;-84
2023/12/01 09:26:24;;;;;;;1.33;1.02;;;17.40;55.60;;;;;;6081942;23;20148;-84
2023/12/01 09:28:56;;;;;;;1.67;1.10;;;17.40;55.60;;;;;;6128178;23;20266;-84
2023/12/01 09:31:23;;;;;;;3.42;1.38;;;17.30;55.70;;;;;;6157990;23;20185;-84
2023/12/01 09:33:50;;;;;;;2.17;1.20;;;17.40;55.90;;;;;;6155002;23;20174;-85
2023/12/01 09:36:17;;;;;;;1.10;1.00;;;17.40;55.70;;;;;;6103686;23;20151;-84
2023/12/01 09:38:44;;;;;;;2.30;1.30;;;17.40;55.10;;;;;;6154055;23;20186;-84
2023/12/01 09:41:10;;;;;;;1.45;1.35;;;17.40;55.60;;;;;;6154443;23;20151;-84
2023/12/01 09:43:36;;;;;;;1.80;1.30;;;17.40;55.50;;;;;;6156299;23;20143;-84
2023/12/01 09:46:02;;;;;;;1.58;1.35;;;17.40;56.00;;;;;;6154579;23;20148;-84
2023/12/01 09:48:28;;;;;;;1.50;1.25;;;17.40;55.30;;;;;;6154138;23;20305;-84
2023/12/01 09:50:54;;;;;;;1.73;1.05;;;17.40;55.30;;;;;;6153896;23;20585;-85
2023/12/01 09:53:20;;;;;;;1.70;1.20;;;17.40;55.60;;;;;;6154904;23;20231;-85
2023/12/01 09:55:46;;;;;;;1.48;1.17;;;17.30;55.30;;;;;;6155675;23;20633;-84
2023/12/01 09:58:12;;;;;;;1.27;1.13;;;17.50;55.20;;;;;;6153761;23;20136;-84
2023/12/01 10:00:38;;;;;;;1.20;1.10;;;17.40;55.20;;;;;;6153863;23;20144;-84
2023/12/01 10:03:04;;;;;;;3.15;1.23;;;17.40;55.00;;;;;;6153723;23;20131;-84
2023/12/01 10:05:33;;;;;;;1.50;1.30;;;17.40;54.90;;;;;;6155361;23;20187;-85
2023/12/01 10:08:00;;;;;;;1.75;1.20;;;17.50;55.10;;;;;;6155077;23;20144;-85
2023/12/01 10:10:26;;;;;;;1.85;1.27;;;17.40;55.40;;;;;;6153993;23;20164;-83
2023/12/01 10:12:55;;;;;;;1.50;1.27;;;17.40;55.50;;;;;;6131257;23;20163;-84
2023/12/01 10:15:24;;;;;;;1.27;1.10;;;17.30;55.70;;;;;;6156801;23;20186;-84
2023/12/01 10:17:51;;;;;;;1.50;1.20;;;17.40;55.30;;;;;;6157015;23;20128;-85
2023/12/01 10:20:22;;;;;;;1.10;1.00;;;17.40;55.20;;;;;;6157638;23;20135;-84
2023/12/01 10:22:49;;;;;;;1.17;1.08;;;17.50;54.30;;;;;;6111162;23;20183;-84
2023/12/01 10:25:16;;;;;;;1.30;1.10;;;17.50;55.00;;;;;;6162547;23;20159;-85
2023/12/01 10:27:42;;;;;;;1.40;1.30;;;17.50;55.10;;;;;;6166016;23;20143;-84
2023/12/01 10:30:12;;;;;;;1.38;1.23;;;17.60;54.60;;;;;;6139632;23;20182;-85
2023/12/01 10:32:44;;;;;;;2.53;1.10;;;17.60;55.00;;;;;;6164748;23;20901;-86
2023/12/01 10:40:22;;;;;;;2.30;1.40;;;17.50;55.00;;;;;;6177893;23;20201;-83
2023/12/01 10:42:52;;;;;;;1.50;1.30;;;17.60;54.70;;;;;;6192050;23;20123;-84
2023/12/01 10:45:18;;;;;;;1.35;1.23;;;17.50;54.90;;;;;;6141224;23;20214;-84
2023/12/01 10:47:46;;;;;;;1.80;1.40;;;17.60;54.80;;;;;;6166219;23;20135;-83
2023/12/01 10:50:12;;;;;;;2.60;1.23;;;17.60;54.60;;;;;;6191497;23;20253;-84
2023/12/01 10:52:44;;;;;;;1.27;1.17;;;17.60;54.70;;;;;;6192869;23;20134;-83
2023/12/01 10:55:13;;;;;;;1.73;1.08;;;17.60;54.50;;;;;;6144484;23;20151;-83
2023/12/01 10:57:42;;;;;;;1.70;1.20;;;17.60;54.70;;;;;;6195703;23;20123;-83
2023/12/01 11:00:19;;;;;;;1.20;1.10;;;17.60;55.10;;;;;;6189971;23;20139;-85
2023/12/01 11:02:48;;;;;;;1.33;1.10;;;17.60;55.20;;;;;;6164478;23;20166;-84
2023/12/01 11:05:15;;;;;;;2.58;1.20;;;17.60;54.80;;;;;;6097853;23;20179;-85
2023/12/01 11:08:00;;;;;;;1.67;1.00;;;17.60;55.20;;;;;;6098771;23;20156;-84
2023/12/01 11:10:51;;;;;;;1.70;1.20;;;17.50;55.50;;;;;;6097303;23;20184;-83
2023/12/01 11:13:43;;;;;;;1.73;1.10;;;17.50;55.50;;;;;;6094507;23;20176;-86
2023/12/01 11:16:09;;;;;;;1.30;0.90;;;17.60;54.80;;;;;;6094775;23;20141;-85
2023/12/01 11:18:42;;;;;;;2.13;1.20;;;17.60;54.60;;;;;;6097625;23;20152;-85
2023/12/01 11:21:08;;;;;;;1.42;1.10;;;17.60;54.90;;;;;;6073584;23;20161;-84
2023/12/01 11:23:35;;;;;;;1.45;1.15;;;17.60;55.10;;;;;;6070662;23;20592;-83
2023/12/01 11:26:05;;;;;;;2.55;1.35;;;17.60;54.60;;;;;;6094395;23;20156;-84
2023/12/01 11:28:45;;;;;;;1.52;1.40;;;17.60;54.50;;;;;;6096867;23;20289;-85
2023/12/01 11:31:19;;;;;;;1.40;1.30;;;17.50;53.30;;;;;;6096978;23;20166;-85
2023/12/01 11:33:49;;;;;;;2.30;1.10;;;17.50;54.30;;;;;;6074059;23;20144;-85
2023/12/01 11:37:00;;;;;;;1.30;1.20;;;17.50;54.30;;;;;;6119931;23;20217;-84
2023/12/01 11:39:29;;;;;;;2.88;1.40;;;17.40;54.00;;;;;;6152061;23;20190;-82
2023/12/01 11:42:16;;;;;;;2.97;1.40;;;17.50;52.50;;;;;;6155542;23;20139;-84
2023/12/01 11:44:47;;;;;;;1.95;1.60;;;17.40;53.70;;;;;;6107345;23;20147;-84
2023/12/01 11:47:13;;;;;;;2.20;1.67;;;17.50;53.50;;;;;;6137307;23;20132;-83
2023/12/01 11:49:43;;;;;;;1.50;1.40;;;17.40;53.00;;;;;;6134228;23;20182;-84
2023/12/01 11:52:21;;;;;;;2.30;1.40;;;17.40;53.70;;;;;;6108797;23;20219;-85
2023/12/01 11:54:48;;;;;;;1.75;1.50;;;17.40;53.50;;;;;;6110571;23;20159;-83
2023/12/01 11:57:17;;;;;;;1.77;1.50;;;17.40;52.80;;;;;;6108639;23;20147;-84
2023/12/01 11:59:43;;;;;;;2.05;1.80;;;17.40;53.40;;;;;;6131292;23;20155;-83
2023/12/01 12:02:09;;;;;;;3.10;1.58;;;17.40;52.70;;;;;;6131041;23;20298;-86
2023/12/01 12:04:46;;;;;;;2.55;1.60;;;17.50;52.20;;;;;;6106944;23;20159;-87
2023/12/01 12:07:13;;;;;;;3.03;1.70;;;17.40;52.00;;;;;;6170845;23;20136;-88
2023/12/01 12:09:39;;;;;;;1.95;1.60;;;17.40;52.10;;;;;;6122992;23;20186;-87
2023/12/01 12:12:09;;;;;;;2.20;1.55;;;17.40;52.40;;;;;;6187476;23;20166;-85
2023/12/01 12:14:38;;;;;;;2.13;1.70;;;17.40;52.80;;;;;;6186459;23;20138;-87
2023/12/01 12:17:07;;;;;;;2.30;1.90;;;17.40;52.30;;;;;;6158461;23;20157;-84
2023/12/01 12:19:44;;;;;;;2.58;1.63;;;17.30;52.60;;;;;;6158445;23;20147;-85
2023/12/01 12:22:13;;;;;;;1.85;1.50;;;17.40;52.30;;;;;;6141441;23;20155;-85
2023/12/01 12:24:43;;;;;;;2.00;1.40;;;17.40;52.20;;;;;;6136803;23;20177;-87
2023/12/01 12:27:09;;;;;;;5.25;1.77;;;17.40;52.80;;;;;;6138335;23;20146;-87
2023/12/01 12:29:37;;;;;;;4.88;1.50;;;17.40;53.10;;;;;;6190298;23;20165;-86
2023/12/01 12:32:03;;;;;;;3.38;1.42;;;17.40;53.10;;;;;;6192394;23;20131;-86
2023/12/01 13:14:37;;;;;;;1.80;1.42;;;17.50;52.50;;;;;;6147530;23;20246;-83
2023/12/01 13:17:04;;;;;;;1.52;1.27;;;17.50;52.50;;;;;;6171877;23;20139;-84
2023/12/01 13:19:31;;;;;;;1.83;1.50;;;17.60;52.40;;;;;;6173310;23;20142;-83
2023/12/01 13:22:00;;;;;;;1.80;1.55;;;17.60;52.30;;;;;;6169093;23;20135;-83
2023/12/01 13:24:31;;;;;;;2.35;1.60;;;17.70;52.40;;;;;;6166523;23;20158;-85
2023/12/01 13:26:59;;;;;;;1.90;1.55;;;17.70;52.40;;;;;;6163061;23;20495;-83
2023/12/01 13:29:27;;;;;;;2.10;1.70;;;17.60;52.40;;;;;;6166283;23;20323;-82
2023/12/01 13:31:53;;;;;;;2.05;1.50;;;17.60;52.30;;;;;;6143420;23;20165;-84
2023/12/01 13:34:19;;;;;;;2.30;1.25;;;17.70;52.20;;;;;;6164164;23;20610;-85
2023/12/01 13:36:48;;;;;;;1.90;1.63;;;17.80;52.10;;;;;;6142023;23;20143;-85
2023/12/01 13:39:16;;;;;;;1.75;1.35;;;17.70;52.30;;;;;;6140370;23;20154;-83
2023/12/01 13:41:42;;;;;;;1.98;1.40;;;17.70;52.00;;;;;;6165863;23;20127;-84
2023/12/01 13:44:21;;;;;;;3.03;1.35;;;17.70;52.40;;;;;;6169611;23;20158;-84
2023/12/01 13:47:14;;;;;;;1.60;1.35;;;17.70;52.20;;;;;;6144259;23;20150;-85
2023/12/01 13:49:46;;;;;;;2.15;1.83;;;17.70;52.00;;;;;;6047237;23;20190;-85
2023/12/01 13:52:18;;;;;;;1.48;1.38;;;17.70;52.00;;;;;;5995026;23;20475;-85
2023/12/01 13:54:44;;;;;;;2.05;1.70;;;17.80;51.80;;;;;;6016646;23;20234;-83
2023/12/01 13:57:39;;;;;;;2.83;1.40;;;17.70;52.00;;;;;;6016159;23;20243;-87
2023/12/01 14:00:07;;;;;;;2.50;1.90;;;17.70;52.40;;;;;;6019187;23;20297;-85